createdAt,value
2018-08-06T00:00:14.860Z,5.00
2018-08-06T00:01:17.720Z,5.25
2018-08-06T00:02:23.529Z,6.00
2018-08-06T00:03:26.626Z,5.75
2018-08-06T00:04:30.119Z,4.50
2018-08-06T00:05:33.311Z,6.00
2018-08-06T00:06:36.119Z,5.50
2018-08-06T00:07:40.487Z,6.00
2018-08-06T00:08:43.300Z,5.00
2018-08-06T00:09:46.146Z,3.00
2018-08-06T00:10:48.959Z,6.00
2018-08-06T00:11:53.455Z,5.50
2018-08-06T00:12:56.291Z,6.00
2018-08-06T00:13:59.116Z,5.25
2018-08-06T00:15:01.960Z,5.75
2018-08-06T00:16:05.579Z,5.00
2018-08-06T00:17:08.698Z,6.00
2018-08-06T00:18:11.788Z,6.75
2018-08-06T00:19:14.587Z,6.00
2018-08-06T00:20:17.504Z,5.75
2018-08-06T00:21:20.351Z,5.00
2018-08-06T00:22:23.365Z,6.00
2018-08-06T00:23:26.586Z,5.00
2018-08-06T00:24:30.277Z,6.00
2018-08-06T00:25:33.317Z,5.00
2018-08-06T00:26:36.151Z,6.00
2018-08-06T00:27:39.039Z,6.00
2018-08-06T00:28:41.841Z,6.00
2018-08-06T00:29:44.658Z,6.00
2018-08-06T00:30:47.795Z,6.25
2018-08-06T00:31:50.620Z,5.50
2018-08-06T00:32:53.454Z,5.00
2018-08-06T00:33:56.280Z,6.00
2018-08-06T00:34:59.136Z,6.00
2018-08-06T00:36:01.967Z,5.50
2018-08-06T00:37:05.123Z,5.25
2018-08-06T00:38:07.924Z,6.00
2018-08-06T00:39:12.087Z,5.00
2018-08-06T00:40:15.018Z,5.00
2018-08-06T00:41:17.838Z,7.00
2018-08-06T00:42:20.728Z,5.75
2018-08-06T00:43:23.849Z,6.00
2018-08-06T00:44:26.681Z,5.75
2018-08-06T00:45:29.648Z,7.00
2018-08-06T00:46:32.458Z,6.75
2018-08-06T00:47:35.299Z,7.00
2018-08-06T00:48:38.177Z,6.00
2018-08-06T00:49:41.264Z,6.00
2018-08-06T00:50:44.633Z,6.00
2018-08-06T00:51:47.484Z,6.50
2018-08-06T00:52:51.572Z,6.25
2018-08-06T00:53:54.407Z,6.00
2018-08-06T00:54:57.235Z,8.00
2018-08-06T00:56:00.059Z,6.00
2018-08-06T00:57:03.630Z,7.00
2018-08-06T00:58:06.492Z,7.00
2018-08-06T00:59:09.328Z,6.50
2018-08-06T01:00:13.784Z,6.00
2018-08-06T01:01:17.279Z,6.50
2018-08-06T01:02:20.436Z,6.00
2018-08-06T01:03:23.278Z,5.50
2018-08-06T01:04:26.123Z,7.00
2018-08-06T01:05:28.943Z,5.75
2018-08-06T01:06:31.754Z,5.75
2018-08-06T01:07:34.607Z,5.50
2018-08-06T01:08:37.774Z,6.00
2018-08-06T01:09:40.585Z,6.25
2018-08-06T01:10:43.405Z,6.25
2018-08-06T01:11:46.222Z,5.75
2018-08-06T01:12:49.110Z,6.25
2018-08-06T01:13:51.945Z,7.00
2018-08-06T01:14:56.072Z,6.00
2018-08-06T01:15:59.052Z,5.75
2018-08-06T01:17:02.363Z,6.00
2018-08-06T01:18:05.203Z,5.00
2018-08-06T01:19:08.053Z,5.00
2018-08-06T01:20:10.889Z,5.00
2018-08-06T01:21:13.998Z,5.00
2018-08-06T01:22:16.849Z,3.50
2018-08-06T01:23:19.743Z,5.25
2018-08-06T01:24:22.553Z,5.75
2018-08-06T01:25:25.349Z,6.00
2018-08-06T01:26:28.212Z,5.00
2018-08-06T01:27:31.337Z,5.25
2018-08-06T01:28:34.150Z,5.25
2018-08-06T01:29:36.961Z,4.00
2018-08-06T01:30:39.783Z,6.75
2018-08-06T01:31:42.631Z,6.00
2018-08-06T01:32:45.493Z,5.00
2018-08-06T01:33:48.642Z,5.00
2018-08-06T01:34:51.499Z,5.50
2018-08-06T01:35:54.316Z,3.00
2018-08-06T01:36:57.141Z,5.25
2018-08-06T01:37:59.974Z,5.00
2018-08-06T01:39:03.890Z,3.50
2018-08-06T01:40:07.029Z,5.25
2018-08-06T01:41:09.867Z,5.25
2018-08-06T01:42:12.686Z,5.50
2018-08-06T01:43:15.518Z,5.00
2018-08-06T01:44:18.395Z,6.00
2018-08-06T01:45:21.216Z,5.25
2018-08-06T01:46:24.318Z,5.00
2018-08-06T01:47:27.161Z,5.25
2018-08-06T01:48:29.990Z,4.50
2018-08-06T01:49:32.832Z,5.00
2018-08-06T01:50:35.653Z,5.00
2018-08-06T01:51:38.507Z,5.00
2018-08-06T01:52:43.048Z,5.25
2018-08-06T01:53:45.911Z,3.50
2018-08-06T01:54:48.806Z,5.00
2018-08-06T01:55:51.648Z,5.00
2018-08-06T01:56:55.570Z,5.25
2018-08-06T01:57:58.431Z,5.00
2018-08-06T01:59:01.553Z,5.00
2018-08-06T02:00:06.825Z,5.50
2018-08-06T02:01:09.646Z,4.50
2018-08-06T02:02:12.453Z,5.00
2018-08-06T02:03:15.312Z,5.00
2018-08-06T02:04:18.132Z,5.00
2018-08-06T02:05:21.257Z,3.50
2018-08-06T02:06:24.083Z,3.00
2018-08-06T02:07:26.903Z,3.00
2018-08-06T02:08:29.705Z,5.00
2018-08-06T02:09:32.515Z,4.00
2018-08-06T02:10:35.343Z,5.00
2018-08-06T02:11:38.465Z,5.00
2018-08-06T02:12:41.480Z,5.75
2018-08-06T02:13:44.284Z,3.50
2018-08-06T02:14:47.117Z,3.00
2018-08-06T02:15:49.993Z,5.25
2018-08-06T02:16:52.825Z,4.50
2018-08-06T02:17:55.914Z,5.00
2018-08-06T02:18:58.722Z,5.00
2018-08-06T02:20:01.566Z,5.00
2018-08-06T02:21:04.377Z,5.00
2018-08-06T02:22:07.248Z,4.50
2018-08-06T02:23:10.051Z,5.00
2018-08-06T02:24:13.206Z,3.00
2018-08-06T02:25:16.246Z,5.00
2018-08-06T02:26:19.047Z,6.00
2018-08-06T02:27:23.042Z,5.25
2018-08-06T02:28:25.926Z,4.00
2018-08-06T02:29:28.750Z,5.00
2018-08-06T02:30:31.592Z,5.50
2018-08-06T02:31:34.492Z,5.00
2018-08-06T02:32:38.228Z,5.00
2018-08-06T02:33:41.093Z,3.00
2018-08-06T02:34:43.918Z,3.50
2018-08-06T02:35:46.735Z,5.00
2018-08-06T02:36:50.518Z,3.00
2018-08-06T02:37:53.364Z,5.00
2018-08-06T02:38:56.181Z,3.00
2018-08-06T02:39:59.002Z,3.00
2018-08-06T02:41:01.819Z,4.00
2018-08-06T02:42:04.637Z,3.00
2018-08-06T02:43:08.330Z,4.00
2018-08-06T02:44:12.550Z,5.25
2018-08-06T02:45:15.425Z,3.00
2018-08-06T02:46:18.265Z,5.00
2018-08-06T02:47:21.108Z,5.00
2018-08-06T02:48:23.938Z,3.50
2018-08-06T02:49:27.103Z,5.00
2018-08-06T02:50:29.945Z,3.50
2018-08-06T02:51:32.814Z,2.75
2018-08-06T02:52:35.689Z,5.00
2018-08-06T02:53:38.537Z,3.50
2018-08-06T02:54:41.419Z,4.00
2018-08-06T02:55:44.534Z,3.50
2018-08-06T02:56:47.407Z,5.00
2018-08-06T02:57:50.243Z,5.00
2018-08-06T02:58:53.029Z,6.00
2018-08-06T02:59:56.150Z,5.00
2018-08-06T03:00:58.958Z,5.50
2018-08-06T03:02:02.121Z,6.00
2018-08-06T03:03:04.945Z,5.00
2018-08-06T03:04:07.850Z,3.50
2018-08-06T03:05:11.853Z,3.50
2018-08-06T03:06:14.757Z,3.00
2018-08-06T03:07:17.591Z,5.00
2018-08-06T03:08:20.695Z,3.75
2018-08-06T03:09:23.549Z,3.00
2018-08-06T03:10:26.395Z,5.00
2018-08-06T03:11:29.221Z,5.00
2018-08-06T03:12:32.097Z,4.50
2018-08-06T03:13:34.970Z,5.00
2018-08-06T03:14:38.070Z,3.00
2018-08-06T03:15:40.943Z,5.00
2018-08-06T03:16:43.774Z,3.00
2018-08-06T03:17:46.673Z,3.00
2018-08-06T03:18:49.508Z,5.00
2018-08-06T03:19:52.373Z,5.00
2018-08-06T03:20:55.479Z,5.50
2018-08-06T03:21:58.355Z,5.50
2018-08-06T03:23:01.233Z,3.75
2018-08-06T03:24:04.133Z,3.75
2018-08-06T03:25:07.004Z,3.75
2018-08-06T03:26:10.392Z,5.00
2018-08-06T03:27:13.542Z,5.00
2018-08-06T03:28:16.383Z,5.00
2018-08-06T03:29:19.244Z,4.00
2018-08-06T03:30:22.823Z,3.75
2018-08-06T03:31:25.683Z,5.00
2018-08-06T03:32:28.526Z,4.25
2018-08-06T03:33:31.808Z,5.00
2018-08-06T03:34:34.654Z,4.25
2018-08-06T03:35:37.468Z,4.50
2018-08-06T03:50:28.528Z,5.00
2018-08-06T03:51:31.499Z,4.75
2018-08-06T03:52:34.581Z,4.00
2018-08-06T03:53:37.414Z,4.75
2018-08-06T03:54:40.275Z,4.75
2018-08-06T03:55:43.647Z,5.25
2018-08-06T03:56:46.479Z,4.00
2018-08-06T03:57:49.667Z,4.75
2018-08-06T03:58:53.224Z,5.00
2018-08-06T03:59:56.363Z,4.50
2018-08-06T04:00:59.299Z,4.50
2018-08-06T04:02:02.235Z,4.75
2018-08-06T04:03:05.057Z,4.75
2018-08-06T04:04:07.867Z,4.50
2018-08-06T04:05:12.642Z,5.25
2018-08-06T04:06:15.582Z,4.00
2018-08-06T04:07:18.729Z,4.00
2018-08-06T04:08:21.535Z,5.00
2018-08-06T04:09:24.338Z,4.00
2018-08-06T04:10:27.159Z,4.50
2018-08-06T04:11:30.785Z,4.00
2018-08-06T04:12:33.619Z,4.50
2018-08-06T04:13:36.447Z,4.00
2018-08-06T04:14:39.307Z,4.75
2018-08-06T04:15:42.131Z,5.00
2018-08-06T04:16:45.277Z,3.00
2018-08-06T04:17:48.117Z,5.00
2018-08-06T04:18:51.229Z,4.00
2018-08-06T04:19:54.051Z,5.00
2018-08-06T04:20:56.895Z,5.00
2018-08-06T04:21:59.734Z,5.00
2018-08-06T04:23:02.573Z,4.00
2018-08-06T04:24:05.430Z,5.25
2018-08-06T04:25:08.710Z,5.00
2018-08-06T04:26:11.522Z,4.50
2018-08-06T04:27:14.332Z,4.25
2018-08-06T04:28:17.170Z,4.75
2018-08-06T04:29:19.989Z,4.00
2018-08-06T04:30:22.872Z,4.00
2018-08-06T04:31:26.026Z,5.00
2018-08-06T04:32:28.862Z,5.50
2018-08-06T04:33:31.810Z,4.00
2018-08-06T04:34:34.684Z,5.00
2018-08-06T04:35:37.519Z,5.00
2018-08-06T04:36:40.659Z,5.00
2018-08-06T04:37:44.255Z,5.75
2018-08-06T04:38:47.151Z,6.00
2018-08-06T04:39:50.033Z,6.50
2018-08-06T04:40:52.908Z,8.75
2018-08-06T04:41:55.753Z,4.50
2018-08-06T04:42:58.901Z,8.00
2018-08-06T04:44:01.752Z,9.00
2018-08-06T04:45:04.653Z,17.00
2018-08-06T04:46:07.522Z,12.00
2018-08-06T04:47:10.398Z,8.00
2018-08-06T04:48:13.253Z,6.00
2018-08-06T04:49:16.387Z,6.00
2018-08-06T04:50:19.245Z,6.00
2018-08-06T04:51:22.724Z,6.00
2018-08-06T04:52:25.638Z,5.00
2018-08-06T04:53:28.505Z,5.25
2018-08-06T04:54:31.343Z,6.00
2018-08-06T04:55:34.763Z,4.25
2018-08-06T04:56:37.599Z,5.25
2018-08-06T04:57:42.395Z,5.25
2018-08-06T05:04:16.345Z,5.25
2018-08-06T05:05:20.805Z,5.00
2018-08-06T05:06:23.636Z,7.00
2018-08-06T05:07:27.279Z,5.75
2018-08-06T05:08:31.086Z,5.00
2018-08-06T05:09:33.903Z,5.00
2018-08-06T05:10:38.666Z,6.00
2018-08-06T05:11:41.769Z,5.50
2018-08-06T05:12:45.878Z,5.25
2018-08-06T05:13:48.688Z,6.00
2018-08-06T05:14:52.124Z,6.00
2018-08-06T05:15:54.991Z,5.00
2018-08-06T05:16:59.438Z,6.00
2018-08-06T05:18:03.449Z,5.00
2018-08-06T05:19:06.264Z,5.25
2018-08-06T05:20:09.115Z,5.00
2018-08-06T05:21:11.977Z,5.00
2018-08-06T05:22:14.783Z,5.75
2018-08-06T05:23:18.082Z,5.00
2018-08-06T05:24:20.916Z,5.75
2018-08-06T05:25:23.776Z,4.50
2018-08-06T05:26:27.700Z,5.00
2018-08-06T05:27:30.553Z,9.00
2018-08-06T05:28:33.433Z,7.00
2018-08-06T05:29:36.740Z,6.25
2018-08-06T05:30:39.589Z,7.00
2018-08-06T05:31:42.441Z,6.25
2018-08-06T05:32:45.291Z,6.25
2018-08-06T05:33:48.261Z,6.00
2018-08-06T05:34:51.131Z,6.25
2018-08-06T05:35:54.385Z,6.00
2018-08-06T05:36:57.294Z,5.25
2018-08-06T05:38:00.205Z,6.75
2018-08-06T05:39:03.744Z,7.00
2018-08-06T05:40:09.657Z,8.00
2018-08-06T05:41:12.583Z,6.00
2018-08-06T05:42:15.958Z,6.75
2018-08-06T05:43:18.818Z,6.00
2018-08-06T05:44:22.211Z,6.50
2018-08-06T05:45:26.052Z,6.75
2018-08-06T05:46:28.938Z,6.50
2018-08-06T05:47:31.797Z,6.00
2018-08-06T05:48:35.035Z,6.50
2018-08-06T05:49:37.936Z,7.00
2018-08-06T05:50:41.066Z,8.50
2018-08-06T05:51:44.037Z,7.00
2018-08-06T05:52:47.079Z,9.50
2018-08-06T05:53:50.041Z,8.50
2018-08-06T05:54:54.513Z,7.00
2018-08-06T05:55:57.405Z,7.00
2018-08-06T05:57:00.305Z,9.00
2018-08-06T05:58:04.130Z,9.00
2018-08-06T05:59:06.978Z,8.00
2018-08-06T06:00:09.849Z,9.25
2018-08-06T06:01:12.992Z,8.50
2018-08-06T06:02:15.875Z,7.50
2018-08-06T06:03:18.774Z,9.00
2018-08-06T06:04:21.732Z,8.00
2018-08-06T06:05:24.621Z,9.50
2018-08-06T06:06:27.507Z,8.50
2018-08-06T06:07:31.098Z,8.50
2018-08-06T06:08:33.963Z,7.00
2018-08-06T06:09:36.844Z,7.00
2018-08-06T06:10:39.702Z,9.00
2018-08-06T06:11:42.568Z,7.00
2018-08-06T06:12:45.443Z,9.00
2018-08-06T06:13:48.617Z,9.00
2018-08-06T06:14:51.537Z,9.00
2018-08-06T06:15:54.399Z,7.00
2018-08-06T06:16:58.507Z,6.50
2018-08-06T06:18:05.113Z,8.50
2018-08-06T06:19:09.652Z,9.00
2018-08-06T06:20:13.852Z,6.00
2018-08-06T06:21:16.710Z,8.00
2018-08-06T06:22:19.608Z,7.50
2018-08-06T06:23:22.785Z,8.00
2018-08-06T06:24:25.645Z,8.75
2018-08-06T06:25:28.517Z,7.00
2018-08-06T06:26:31.901Z,7.00
2018-08-06T06:27:34.785Z,7.25
2018-08-06T06:28:37.658Z,7.25
2018-08-06T06:29:40.535Z,6.00
2018-08-06T06:30:44.090Z,7.00
2018-08-06T06:31:46.981Z,7.00
2018-08-06T06:32:50.117Z,7.00
2018-08-06T06:33:53.194Z,7.00
2018-08-06T06:34:56.737Z,18.75
2018-08-06T06:36:00.728Z,16.25
2018-08-06T06:37:04.146Z,10.00
2018-08-06T06:38:07.595Z,9.75
2018-08-06T06:39:13.598Z,7.75
2018-08-06T06:40:16.821Z,7.00
2018-08-06T06:41:19.758Z,6.00
2018-08-06T06:42:22.585Z,7.25
2018-08-06T06:43:25.493Z,6.75
2018-08-06T06:44:28.360Z,5.50
2018-08-06T06:45:32.121Z,5.50
2018-08-06T06:46:34.953Z,6.00
2018-08-06T06:47:38.627Z,4.00
2018-08-06T06:48:41.491Z,7.50
2018-08-06T06:49:44.391Z,3.75
2018-08-06T06:50:47.568Z,4.00
2018-08-06T06:51:51.324Z,3.00
2018-08-06T06:52:54.893Z,3.50
2018-08-06T06:53:57.886Z,4.50
2018-08-06T06:55:00.829Z,3.75
2018-08-06T06:56:03.674Z,4.00
2018-08-06T06:57:07.244Z,4.00
2018-08-06T06:58:11.114Z,4.00
2018-08-06T06:59:15.530Z,3.00
2018-08-06T07:00:18.716Z,6.00
2018-08-06T07:01:23.427Z,4.00
2018-08-06T07:02:26.618Z,4.00
2018-08-06T07:03:29.815Z,3.00
2018-08-06T07:04:32.651Z,4.00
2018-08-06T07:05:35.491Z,4.00
2018-08-06T07:06:41.068Z,3.25
2018-08-06T07:07:43.922Z,3.50
2018-08-06T07:08:46.788Z,4.00
2018-08-06T07:09:50.058Z,3.25
2018-08-06T07:10:53.013Z,4.00
2018-08-06T07:11:55.857Z,3.00
2018-08-06T07:12:59.741Z,3.00
2018-08-06T07:14:02.605Z,3.25
2018-08-06T07:15:05.841Z,3.00
2018-08-06T07:16:09.967Z,4.00
2018-08-06T07:17:12.818Z,3.00
2018-08-06T07:18:15.816Z,3.00
2018-08-06T07:19:18.842Z,3.75
2018-08-06T07:20:22.318Z,3.00
2018-08-06T07:21:25.202Z,3.00
2018-08-06T07:22:28.390Z,4.00
2018-08-06T07:23:31.245Z,3.25
2018-08-06T07:24:35.510Z,4.00
2018-08-06T07:25:41.975Z,4.00
2018-08-06T07:26:44.829Z,3.75
2018-08-06T07:27:47.678Z,3.00
2018-08-06T07:28:51.903Z,3.25
2018-08-06T07:29:55.551Z,4.00
2018-08-06T07:31:00.968Z,3.00
2018-08-06T07:32:04.552Z,4.00
2018-08-06T07:33:07.426Z,3.75
2018-08-06T07:34:10.806Z,3.00
2018-08-06T07:35:14.585Z,3.00
2018-08-06T07:36:17.476Z,3.00
2018-08-06T07:37:21.640Z,3.50
2018-08-06T07:38:24.510Z,3.25
2018-08-06T07:39:28.601Z,3.00
2018-08-06T07:40:31.429Z,3.00
2018-08-06T07:41:34.607Z,3.00
2018-08-06T07:42:37.487Z,3.00
2018-08-06T07:43:41.097Z,3.75
2018-08-06T07:44:44.251Z,3.25
2018-08-06T07:45:47.972Z,3.25
2018-08-06T07:46:52.313Z,3.00
2018-08-06T07:47:56.360Z,4.00
2018-08-06T07:48:59.602Z,3.75
2018-08-06T07:50:02.871Z,3.75
2018-08-06T07:51:06.300Z,3.00
2018-08-06T07:52:09.163Z,4.00
2018-08-06T07:53:12.344Z,3.00
2018-08-06T07:54:15.989Z,3.00
2018-08-06T07:55:19.827Z,4.00
2018-08-06T07:56:22.795Z,3.75
2018-08-06T07:57:25.673Z,3.00
2018-08-06T07:58:29.180Z,3.50
2018-08-06T07:59:32.239Z,3.75
2018-08-06T08:00:35.777Z,3.75
2018-08-06T08:01:38.625Z,4.00
2018-08-06T08:02:41.667Z,3.25
2018-08-06T08:03:44.537Z,4.00
2018-08-06T08:04:47.822Z,4.00
2018-08-06T08:05:50.701Z,3.00
2018-08-06T08:06:53.933Z,4.00
2018-08-06T08:07:56.765Z,5.00
2018-08-06T08:09:01.278Z,3.00
2018-08-06T08:10:05.109Z,4.00
2018-08-06T08:11:07.975Z,5.00
2018-08-06T08:12:10.780Z,4.00
2018-08-06T08:13:14.888Z,3.50
2018-08-06T08:14:17.743Z,3.00
2018-08-06T08:15:21.239Z,3.00
2018-08-06T08:16:24.139Z,3.75
2018-08-06T08:17:26.953Z,3.75
2018-08-06T08:18:29.799Z,4.50
2018-08-06T08:19:34.750Z,4.00
2018-08-06T08:20:37.802Z,5.00
2018-08-06T08:21:41.692Z,3.75
2018-08-06T08:22:45.234Z,4.00
2018-08-06T08:23:48.135Z,3.00
2018-08-06T08:24:51.941Z,3.25
2018-08-06T08:25:55.297Z,4.50
2018-08-06T08:26:58.128Z,4.00
2018-08-06T08:28:00.972Z,3.00
2018-08-06T08:29:04.319Z,5.00
2018-08-06T08:30:07.346Z,4.50
2018-08-06T08:31:14.600Z,5.00
2018-08-06T08:32:18.619Z,4.00
2018-08-06T08:33:21.466Z,4.00
2018-08-06T08:34:24.423Z,4.25
2018-08-06T08:35:27.297Z,4.00
2018-08-06T08:36:30.379Z,4.00
2018-08-06T08:37:34.237Z,4.00
2018-08-06T08:38:39.701Z,4.50
2018-08-06T08:39:42.563Z,3.75
2018-08-06T08:40:45.423Z,3.50
2018-08-06T08:41:48.386Z,4.75
2018-08-06T08:42:51.275Z,4.00
2018-08-06T08:43:55.129Z,4.00
2018-08-06T08:45:01.296Z,4.00
2018-08-06T08:46:05.328Z,3.00
2018-08-06T08:47:08.181Z,4.00
2018-08-06T08:48:11.250Z,4.00
2018-08-06T08:49:14.109Z,4.00
2018-08-06T08:50:17.232Z,3.00
2018-08-06T08:51:20.357Z,5.00
2018-08-06T08:52:23.327Z,4.00
2018-08-06T08:53:26.203Z,4.00
2018-08-06T08:54:29.971Z,4.00
2018-08-06T08:55:36.720Z,4.00
2018-08-06T08:56:39.589Z,4.00
2018-08-06T08:57:42.983Z,4.50
2018-08-06T08:58:45.976Z,3.00
2018-08-06T08:59:48.763Z,4.50
2018-08-06T09:00:52.561Z,4.00
2018-08-06T09:01:55.521Z,4.00
2018-08-06T09:02:59.277Z,3.00
2018-08-06T09:04:02.401Z,4.00
2018-08-06T09:05:09.291Z,5.00
2018-08-06T09:06:12.152Z,4.00
2018-08-06T09:07:15.520Z,4.00
2018-08-06T09:08:18.389Z,4.00
2018-08-06T09:09:21.227Z,4.00
2018-08-06T09:10:24.412Z,3.00
2018-08-06T09:11:27.328Z,4.50
2018-08-06T09:12:30.723Z,6.00
2018-08-06T09:13:34.840Z,4.00
2018-08-06T09:14:37.756Z,4.00
2018-08-06T09:15:40.607Z,4.25
2018-08-06T09:16:44.529Z,4.75
2018-08-06T09:17:47.422Z,4.00
2018-08-06T09:18:53.082Z,4.00
2018-08-06T09:19:55.952Z,4.00
2018-08-06T09:20:58.913Z,3.50
2018-08-06T09:22:01.860Z,4.00
2018-08-06T09:23:05.096Z,4.00
2018-08-06T09:24:07.918Z,5.00
2018-08-06T09:25:11.551Z,4.00
2018-08-06T09:26:14.385Z,3.50
2018-08-06T09:27:17.392Z,5.00
2018-08-06T09:28:20.534Z,4.00
2018-08-06T09:29:23.382Z,4.00
2018-08-06T09:30:26.478Z,3.50
2018-08-06T09:31:31.254Z,3.75
2018-08-06T09:32:34.096Z,5.00
2018-08-06T09:33:36.996Z,4.75
2018-08-06T09:34:41.275Z,4.75
2018-08-06T09:35:44.129Z,4.25
2018-08-06T09:36:51.036Z,3.00
2018-08-06T09:37:54.577Z,3.00
2018-08-06T09:38:57.537Z,4.00
2018-08-06T09:40:00.441Z,4.00
2018-08-06T09:41:03.572Z,3.75
2018-08-06T09:42:06.407Z,4.00
2018-08-06T09:43:11.031Z,4.00
2018-08-06T09:44:14.855Z,4.75
2018-08-06T09:45:20.133Z,4.00
2018-08-06T09:46:24.129Z,4.00
2018-08-06T09:47:29.314Z,4.50
2018-08-06T09:48:32.471Z,4.75
2018-08-06T10:06:01.688Z,5.50
2018-08-06T10:07:04.541Z,4.00
2018-08-06T10:08:07.568Z,4.50
2018-08-06T10:09:11.721Z,4.25
2018-08-06T10:10:19.568Z,4.00
2018-08-06T10:11:22.405Z,4.00
2018-08-06T10:12:25.245Z,3.75
2018-08-06T10:13:28.255Z,5.75
2018-08-06T10:14:33.200Z,4.00
2018-08-06T10:15:37.654Z,4.00
2018-08-06T10:16:40.903Z,3.00
2018-08-06T10:17:44.692Z,5.00
2018-08-06T10:18:47.546Z,4.50
2018-08-06T10:19:50.731Z,4.75
2018-08-06T10:20:54.490Z,4.50
2018-08-06T10:21:57.371Z,4.00
2018-08-06T10:23:01.682Z,4.00
2018-08-06T10:24:05.220Z,4.25
2018-08-06T10:25:09.374Z,4.00
2018-08-06T10:26:12.248Z,4.50
2018-08-06T10:27:15.085Z,4.00
2018-08-06T10:28:17.941Z,5.00
2018-08-06T10:29:21.116Z,4.00
2018-08-06T10:30:24.481Z,3.25
2018-08-06T10:31:27.429Z,4.00
2018-08-06T10:32:30.420Z,4.25
2018-08-06T10:33:34.712Z,4.00
2018-08-06T10:34:37.571Z,4.00
2018-08-06T10:35:40.892Z,3.50
2018-08-06T10:36:44.515Z,3.50
2018-08-06T10:37:52.921Z,4.75
2018-08-06T10:38:55.838Z,4.25
2018-08-06T10:40:00.461Z,3.25
2018-08-06T10:41:03.452Z,3.50
2018-08-06T10:42:06.338Z,4.00
2018-08-06T10:43:09.179Z,4.00
2018-08-06T10:44:12.697Z,4.00
2018-08-06T10:45:17.527Z,4.00
2018-08-06T10:46:21.838Z,4.00
2018-08-06T10:47:25.371Z,3.00
2018-08-06T10:48:28.443Z,5.00
2018-08-06T10:49:31.304Z,3.00
2018-08-06T10:50:35.979Z,5.00
2018-08-06T10:51:39.322Z,4.00
2018-08-06T10:52:42.162Z,3.00
2018-08-06T10:53:45.607Z,4.00
2018-08-06T10:54:48.447Z,3.50
2018-08-06T10:55:51.338Z,3.25
2018-08-06T10:56:54.658Z,3.50
2018-08-06T10:57:58.110Z,4.75
2018-08-06T10:59:01.557Z,4.00
2018-08-06T11:00:04.695Z,4.00
2018-08-06T11:01:08.458Z,3.00
2018-08-06T11:02:11.298Z,4.00
2018-08-06T11:03:15.233Z,4.00
2018-08-06T11:04:19.797Z,3.50
2018-08-06T11:05:25.211Z,4.00
2018-08-06T11:06:29.934Z,4.50
2018-08-06T11:07:32.769Z,4.25
2018-08-06T11:08:36.475Z,4.00
2018-08-06T11:09:40.128Z,5.00
2018-08-06T11:10:43.452Z,4.00
2018-08-06T11:11:46.338Z,3.00
2018-08-06T11:12:49.719Z,4.00
2018-08-06T11:13:52.858Z,4.00
2018-08-06T11:14:55.921Z,4.00
2018-08-06T11:15:58.847Z,4.00
2018-08-06T11:17:01.718Z,4.00
2018-08-06T11:18:05.158Z,4.00
2018-08-06T11:19:08.359Z,4.00
2018-08-06T11:20:12.619Z,4.75
2018-08-06T11:21:15.458Z,4.00
2018-08-06T11:22:18.340Z,4.00
2018-08-06T11:23:23.350Z,5.00
2018-08-06T11:24:27.298Z,5.00
2018-08-06T11:25:33.400Z,4.00
2018-08-06T11:26:36.320Z,4.00
2018-08-06T11:27:40.738Z,4.00
2018-08-06T11:28:44.628Z,4.50
2018-08-06T11:29:49.398Z,4.00
2018-08-06T11:30:52.387Z,5.00
2018-08-06T11:31:56.215Z,3.75
2018-08-06T11:33:00.704Z,4.00
2018-08-06T11:34:04.566Z,4.00
2018-08-06T11:35:08.296Z,5.00
2018-08-06T11:36:11.156Z,4.00
2018-08-06T11:37:14.123Z,4.00
2018-08-06T11:38:17.277Z,3.25
2018-08-06T11:39:20.139Z,5.00
2018-08-06T11:40:23.275Z,4.00
2018-08-06T11:41:26.090Z,4.50
2018-08-06T11:42:29.618Z,4.25
2018-08-06T11:43:33.339Z,4.50
2018-08-06T11:44:37.290Z,3.00
2018-08-06T11:45:40.316Z,3.75
2018-08-06T11:46:43.177Z,4.00
2018-08-06T11:47:47.566Z,4.00
2018-08-06T11:48:53.612Z,3.75
2018-08-06T11:49:58.448Z,4.00
2018-08-06T11:51:01.592Z,4.25
2018-08-06T11:52:05.334Z,3.25
2018-08-06T11:53:08.491Z,3.75
2018-08-06T11:54:12.335Z,3.25
2018-08-06T11:55:15.821Z,3.50
2018-08-06T11:56:18.740Z,3.00
2018-08-06T11:57:21.900Z,4.00
2018-08-06T11:58:24.722Z,3.25
2018-08-06T11:59:28.529Z,3.75
2018-08-06T12:00:32.624Z,3.00
2018-08-06T12:01:39.389Z,3.75
2018-08-06T12:02:43.324Z,3.75
2018-08-06T12:03:46.460Z,3.25
2018-08-06T12:04:49.461Z,3.25
2018-08-06T12:05:53.266Z,3.75
2018-08-06T12:06:57.679Z,3.00
2018-08-06T12:08:00.928Z,2.75
2018-08-06T12:09:07.239Z,4.00
2018-08-06T12:10:10.547Z,3.75
2018-08-06T12:11:14.315Z,3.75
2018-08-06T12:12:17.232Z,3.75
2018-08-06T12:13:20.123Z,3.00
2018-08-06T12:14:23.076Z,4.00
2018-08-06T12:15:26.589Z,3.50
2018-08-06T12:16:29.719Z,3.75
2018-08-06T12:17:33.545Z,3.00
2018-08-06T12:18:36.718Z,3.50
2018-08-06T12:19:39.585Z,3.00
2018-08-06T12:20:43.946Z,2.00
2018-08-06T12:21:47.789Z,2.50
2018-08-06T12:22:52.314Z,2.50
2018-08-06T12:23:56.235Z,3.75
2018-08-06T12:24:59.918Z,3.00
2018-08-06T12:26:03.518Z,2.50
2018-08-06T12:27:06.296Z,2.75
2018-08-06T12:28:09.702Z,2.75
2018-08-06T12:29:12.791Z,2.00
2018-08-06T12:30:16.757Z,3.00
2018-08-06T12:31:19.848Z,2.75
2018-08-06T12:32:24.257Z,3.50
2018-08-06T12:33:27.789Z,3.00
2018-08-06T12:34:30.670Z,3.50
2018-08-06T12:35:33.755Z,2.75
2018-08-06T12:36:37.741Z,3.50
2018-08-06T12:37:40.591Z,4.00
2018-08-06T12:38:43.450Z,3.00
2018-08-06T12:39:46.650Z,3.50
2018-08-06T12:40:49.602Z,2.50
2018-08-06T12:41:52.793Z,2.00
2018-08-06T12:42:55.664Z,3.00
2018-08-06T12:43:58.625Z,3.00
2018-08-06T12:45:01.504Z,2.00
2018-08-06T12:46:04.718Z,2.75
2018-08-06T12:47:07.665Z,2.00
2018-08-06T12:48:10.538Z,2.25
2018-08-06T12:49:13.396Z,2.00
2018-08-06T12:50:17.268Z,2.25
2018-08-06T12:51:20.111Z,2.00
2018-08-06T12:52:23.477Z,1.25
2018-08-06T12:53:27.337Z,1.75
2018-08-06T12:54:31.290Z,1.00
2018-08-06T12:55:35.169Z,2.75
2018-08-06T12:56:40.610Z,3.00
2018-08-06T12:57:44.108Z,2.00
2018-08-06T12:58:47.307Z,2.25
2018-08-06T12:59:51.025Z,3.00
2018-08-06T13:00:54.598Z,2.00
2018-08-06T13:01:59.423Z,1.50
2018-08-06T13:03:02.263Z,2.00
2018-08-06T13:04:05.119Z,2.00
2018-08-06T13:05:09.708Z,3.00
2018-08-06T13:06:14.415Z,2.25
2018-08-06T13:07:17.364Z,3.00
2018-08-06T13:08:21.849Z,3.00
2018-08-06T13:09:25.627Z,2.00
2018-08-06T13:10:28.573Z,2.75
2018-08-06T13:11:31.792Z,3.00
2018-08-06T13:12:34.985Z,1.75
2018-08-06T13:13:41.025Z,3.00
2018-08-06T13:14:43.896Z,2.50
2018-08-06T13:15:46.747Z,3.00
2018-08-06T13:16:50.723Z,3.00
2018-08-06T13:17:54.515Z,2.00
2018-08-06T13:18:58.634Z,3.00
2018-08-06T13:20:03.366Z,3.00
2018-08-06T13:21:06.503Z,3.00
2018-08-06T13:22:10.325Z,2.25
2018-08-06T13:23:14.500Z,2.00
2018-08-06T13:24:18.882Z,2.75
2018-08-06T13:25:21.788Z,3.00
2018-08-06T13:26:25.529Z,3.00
2018-08-06T13:27:31.171Z,3.50
2018-08-06T13:28:36.736Z,2.50
2018-08-06T13:29:40.780Z,3.00
2018-08-06T13:30:44.987Z,1.25
2018-08-06T13:31:50.733Z,2.25
2018-08-06T13:32:53.594Z,3.00
2018-08-06T13:34:01.588Z,2.00
2018-08-06T13:35:04.472Z,2.00
2018-08-06T13:36:07.312Z,2.00
2018-08-06T13:37:10.495Z,2.50
2018-08-06T13:38:13.360Z,2.00
2018-08-06T13:39:18.672Z,2.50
2018-08-06T13:40:22.369Z,2.00
2018-08-06T13:41:25.337Z,2.00
2018-08-06T13:42:28.824Z,4.75
2018-08-06T13:43:33.732Z,3.00
2018-08-06T13:44:37.510Z,1.75
2018-08-06T13:45:41.576Z,2.00
2018-08-06T13:46:45.093Z,3.00
2018-08-06T13:47:48.788Z,4.00
2018-08-06T13:48:51.966Z,3.00
2018-08-06T13:49:56.865Z,2.00
2018-08-06T13:51:00.537Z,3.00
2018-08-06T13:52:03.365Z,1.50
2018-08-06T13:53:06.642Z,2.00
2018-08-06T13:54:11.578Z,2.00
2018-08-06T13:55:14.780Z,3.00
2018-08-06T13:56:18.089Z,2.50
2018-08-06T13:57:21.929Z,3.00
2018-08-06T13:58:25.656Z,2.75
2018-08-06T13:59:28.751Z,2.75
2018-08-06T14:00:31.590Z,1.00
2018-08-06T14:01:35.354Z,2.75
2018-08-06T14:02:38.717Z,2.00
2018-08-06T14:03:46.269Z,2.75
2018-08-06T14:04:49.193Z,2.00
2018-08-06T14:05:52.052Z,2.00
2018-08-06T14:06:55.008Z,2.75
2018-08-06T14:07:57.931Z,2.00
2018-08-06T14:09:01.111Z,2.00
2018-08-06T14:10:04.714Z,2.75
2018-08-06T14:11:07.730Z,3.00
2018-08-06T14:12:10.986Z,2.50
2018-08-06T14:13:14.924Z,2.25
2018-08-06T14:14:18.456Z,3.25
2018-08-06T14:15:21.843Z,2.00
2018-08-06T14:16:25.730Z,2.00
2018-08-06T14:17:33.472Z,2.75
2018-08-06T14:18:37.657Z,2.00
2018-08-06T14:19:43.250Z,2.50
2018-08-06T14:20:47.327Z,2.00
2018-08-06T14:21:52.996Z,2.75
2018-08-06T14:22:56.133Z,2.00
2018-08-06T14:23:59.212Z,3.00
2018-08-06T14:25:02.063Z,2.25
2018-08-06T14:26:06.886Z,2.00
2018-08-06T14:27:11.383Z,2.00
2018-08-06T14:28:14.714Z,2.00
2018-08-06T14:29:17.765Z,3.00
2018-08-06T14:30:20.752Z,3.00
2018-08-06T14:31:24.486Z,3.00
2018-08-06T14:32:27.382Z,3.00
2018-08-06T14:51:26.787Z,2.75
2018-08-06T14:52:30.990Z,2.00
2018-08-06T14:53:37.251Z,2.25
2018-08-06T14:54:40.764Z,2.75
2018-08-06T14:55:43.623Z,3.50
2018-08-06T14:56:47.077Z,2.00